Time;durP1;ratioP1;P1;durP2;ratioP2;P2;SDS_P1;SDS_P2;PMS_P1;PMS_P2;Temp;Humidity;BMP_temperature;BMP_pressure;BME280_temperature;BME280_humidity;BME280_pressure;Samples;Min_cycle;Max_cycle;Signal;HPM_P1;HPM_P2
2021/09/07 07:13:47;;;;;;;9.63;8.18;;;;;;;;;;6255719;22;20911;-41
2021/09/07 07:16:13;;;;;;;10.80;7.93;;;;;;;;;;6269624;22;20777;-41
2021/09/07 07:18:40;;;;;;;11.45;8.35;;;;;;;;;;6271136;22;20343;-42
2021/09/07 07:21:06;;;;;;;10.63;8.30;;;;;;;;;;6270683;22;20372;-42
2021/09/07 07:23:32;;;;;;;9.63;8.30;;;;;;;;;;6271443;22;20340;-42
2021/09/07 07:25:58;;;;;;;10.63;8.27;;;;;;;;;;6270852;22;20800;-40
2021/09/07 07:28:24;;;;;;;9.82;7.65;;;;;;;;;;6271273;22;20336;-40
2021/09/07 07:30:50;;;;;;;10.63;7.82;;;;;;;;;;6268630;22;20394;-42
2021/09/07 07:33:16;;;;;;;10.23;7.80;;;;;;;;;;6270771;22;20424;-45
2021/09/07 07:35:43;;;;;;;10.52;7.85;;;;;;;;;;6270991;22;20405;-41
2021/09/07 07:38:09;;;;;;;9.68;7.80;;;;;;;;;;6243705;22;20647;-41
2021/09/07 07:40:35;;;;;;;9.90;8.00;;;;;;;;;;6270503;22;20372;-43
2021/09/07 07:43:02;;;;;;;9.35;7.75;;;;;;;;;;6271106;22;20392;-41
2021/09/07 07:45:28;;;;;;;11.32;8.60;;;;;;;;;;6270218;22;20438;-43
2021/09/07 07:47:54;;;;;;;9.95;8.02;;;;;;;;;;6270710;22;20332;-43
2021/09/07 07:50:20;;;;;;;11.23;8.40;;;;;;;;;;6269845;22;20336;-45
2021/09/07 07:52:46;;;;;;;10.05;8.27;;;;;;;;;;6269571;22;20481;-44
2021/09/07 07:55:12;;;;;;;11.15;8.43;;;;;;;;;;6270343;22;20347;-43
2021/09/07 07:57:38;;;;;;;8.57;7.50;;;;;;;;;;6269518;22;20333;-44
2021/09/07 08:00:05;;;;;;;9.48;7.57;;;;;;;;;;6270188;22;20349;-44
2021/09/07 08:02:31;;;;;;;10.50;7.80;;;;;;;;;;6243055;22;20367;-44
2021/09/07 08:04:57;;;;;;;11.17;8.20;;;;;;;;;;6269799;22;20333;-41
2021/09/07 08:07:24;;;;;;;9.80;7.95;;;;;;;;;;6270533;22;20817;-44
2021/09/07 08:09:50;;;;;;;9.80;7.78;;;;;;;;;;6271136;22;20418;-43
2021/09/07 08:12:19;;;;;;;12.07;8.73;;;;;;;;;;6270538;22;20384;-44
2021/09/07 08:14:46;;;;;;;10.23;8.20;;;;;;;;;;6269588;22;20363;-44
2021/09/07 08:17:12;;;;;;;9.30;8.00;;;;;;;;;;6271127;22;20610;-41
2021/09/07 08:19:38;;;;;;;9.40;7.72;;;;;;;;;;6270917;22;20426;-43
2021/09/07 08:22:04;;;;;;;11.55;8.13;;;;;;;;;;6270766;22;20380;-44
2021/09/07 08:24:31;;;;;;;9.60;7.63;;;;;;;;;;6271383;22;20347;-43
2021/09/07 08:26:57;;;;;;;11.88;7.85;;;;;;;;;;6270577;22;20339;-42
2021/09/07 08:29:23;;;;;;;9.43;7.78;;;;;;;;;;6269852;22;20804;-46
2021/09/07 08:31:49;;;;;;;12.70;8.20;;;;;;;;;;6270818;22;20751;-45
2021/09/07 08:34:15;;;;;;;9.98;7.60;;;;;;;;;;6243268;22;20370;-45
2021/09/07 08:36:43;;;;;;;9.68;7.57;;;;;;;;;;6268859;22;21287;-43
2021/09/07 08:39:09;;;;;;;10.63;8.10;;;;;;;;;;6270528;22;20400;-46
2021/09/07 08:41:35;;;;;;;10.50;7.93;;;;;;;;;;6269734;22;20380;-45
2021/09/07 08:44:02;;;;;;;9.50;7.60;;;;;;;;;;6242771;22;20344;-46
2021/09/07 08:46:28;;;;;;;12.77;8.30;;;;;;;;;;6269973;22;20340;-44
2021/09/07 08:48:54;;;;;;;10.93;7.93;;;;;;;;;;6270224;22;20681;-43
2021/09/07 08:51:22;;;;;;;12.88;7.80;;;;;;;;;;6270408;22;20385;-44
2021/09/07 08:53:48;;;;;;;12.25;8.10;;;;;;;;;;6271243;22;20657;-44
2021/09/07 08:56:15;;;;;;;10.18;7.57;;;;;;;;;;6271537;22;20439;-43
2021/09/07 08:58:41;;;;;;;9.50;8.00;;;;;;;;;;6271897;22;20393;-43
2021/09/07 09:01:13;;;;;;;10.93;8.40;;;;;;;;;;6272568;22;20380;-44
2021/09/07 09:03:41;;;;;;;10.38;8.07;;;;;;;;;;6272269;22;20633;-44
2021/09/07 09:06:07;;;;;;;11.53;7.57;;;;;;;;;;6271705;22;20380;-45
2021/09/07 09:08:34;;;;;;;10.70;8.10;;;;;;;;;;6271734;22;20415;-43
2021/09/07 09:11:05;;;;;;;9.55;7.78;;;;;;;;;;6272337;22;20353;-43
2021/09/07 09:13:40;;;;;;;13.15;8.27;;;;;;;;;;6271455;22;20448;-43
2021/09/07 09:16:07;;;;;;;10.15;7.53;;;;;;;;;;6271582;22;20444;-46
2021/09/07 09:18:38;;;;;;;11.00;7.75;;;;;;;;;;6244708;22;20344;-42
2021/09/07 09:21:23;;;;;;;12.55;8.20;;;;;;;;;;6271292;22;20402;-45
2021/09/07 09:24:07;;;;;;;10.73;7.45;;;;;;;;;;6271519;22;20431;-45
2021/09/07 09:26:49;;;;;;;9.18;7.30;;;;;;;;;;6271548;22;20329;-44
2021/09/07 09:29:19;;;;;;;11.63;7.82;;;;;;;;;;6271871;22;20348;-43
2021/09/07 09:31:53;;;;;;;8.90;7.27;;;;;;;;;;6271670;22;20664;-46
2021/09/07 09:34:19;;;;;;;9.73;7.57;;;;;;;;;;6243521;22;20355;-48
2021/09/07 09:36:59;;;;;;;12.38;7.70;;;;;;;;;;6271525;22;20839;-42
2021/09/07 09:39:37;;;;;;;9.70;7.43;;;;;;;;;;6271535;22;20415;-43
2021/09/07 09:42:04;;;;;;;9.73;7.27;;;;;;;;;;6271296;22;21957;-50
2021/09/07 09:44:30;;;;;;;8.85;6.75;;;;;;;;;;6272364;22;20339;-43
2021/09/07 09:46:56;;;;;;;9.15;7.07;;;;;;;;;;6271698;22;20343;-43
2021/09/07 09:49:24;;;;;;;10.43;7.25;;;;;;;;;;6271823;22;20793;-42
2021/09/07 09:51:50;;;;;;;9.63;7.28;;;;;;;;;;6272119;22;20419;-45
2021/09/07 09:54:17;;;;;;;10.95;7.07;;;;;;;;;;6271155;22;20661;-43
2021/09/07 09:56:43;;;;;;;10.20;6.93;;;;;;;;;;6270737;22;20355;-43
2021/09/07 09:59:09;;;;;;;9.48;7.32;;;;;;;;;;6271494;22;20339;-44
2021/09/07 10:01:40;;;;;;;11.65;7.65;;;;;;;;;;6243658;22;20399;-45
2021/09/07 10:04:11;;;;;;;9.00;7.03;;;;;;;;;;6271499;22;20341;-46
2021/09/07 10:06:37;;;;;;;10.50;7.05;;;;;;;;;;6271441;22;20333;-43
2021/09/07 10:09:04;;;;;;;10.25;7.18;;;;;;;;;;6271400;22;20332;-42
2021/09/07 10:11:31;;;;;;;9.73;7.15;;;;;;;;;;6271660;22;20347;-43
2021/09/07 10:13:59;;;;;;;8.83;6.80;;;;;;;;;;6271242;22;20368;-43
2021/09/07 10:16:52;;;;;;;8.77;7.20;;;;;;;;;;6271340;22;20407;-43
2021/09/07 10:25:47;;;;;;;9.02;6.88;;;;;;;;;;6235381;22;20761;-44
2021/09/07 10:28:13;;;;;;;9.15;6.90;;;;;;;;;;6243401;22;20380;-43
2021/09/07 10:31:01;;;;;;;9.05;6.82;;;;;;;;;;6271107;22;20351;-44
2021/09/07 10:33:39;;;;;;;8.00;7.17;;;;;;;;;;6271209;22;20340;-44
2021/09/07 10:36:05;;;;;;;9.67;6.87;;;;;;;;;;6270571;22;20751;-44
2021/09/07 10:38:41;;;;;;;8.73;7.10;;;;;;;;;;6270546;22;20804;-43
2021/09/07 10:41:08;;;;;;;10.52;7.30;;;;;;;;;;6270651;22;20372;-44
2021/09/07 10:43:54;;;;;;;8.63;6.78;;;;;;;;;;6243129;22;20376;-43
2021/09/07 10:46:39;;;;;;;9.07;6.90;;;;;;;;;;6243206;22;20352;-43
2021/09/07 10:49:14;;;;;;;9.82;7.25;;;;;;;;;;6270894;22;20347;-43
2021/09/07 10:51:59;;;;;;;9.20;7.00;;;;;;;;;;6271016;22;20352;-42
2021/09/07 10:54:26;;;;;;;9.48;6.95;;;;;;;;;;6270188;22;20344;-42
2021/09/07 10:56:56;;;;;;;8.93;7.17;;;;;;;;;;6270915;22;20415;-42
2021/09/07 10:59:41;;;;;;;10.07;7.17;;;;;;;;;;6269369;22;20425;-45
2021/09/07 11:02:25;;;;;;;10.35;7.55;;;;;;;;;;6271077;22;20360;-48
2021/09/07 11:04:52;;;;;;;9.37;7.33;;;;;;;;;;6270235;22;20400;-46
2021/09/07 11:07:33;;;;;;;10.23;7.45;;;;;;;;;;6271217;22;20347;-46
2021/09/07 11:09:59;;;;;;;11.45;7.38;;;;;;;;;;6270090;22;20336;-47
2021/09/07 11:12:26;;;;;;;9.80;7.13;;;;;;;;;;6268785;22;20479;-46
2021/09/07 11:15:02;;;;;;;9.10;6.90;;;;;;;;;;6268770;22;20348;-48
2021/09/07 11:17:28;;;;;;;9.73;7.00;;;;;;;;;;6268386;22;20709;-45
2021/09/07 11:20:02;;;;;;;9.65;7.25;;;;;;;;;;6270350;22;20363;-46
2021/09/07 11:22:29;;;;;;;9.88;7.35;;;;;;;;;;6270333;22;20404;-47
2021/09/07 11:25:03;;;;;;;9.65;6.72;;;;;;;;;;6271220;22;20399;-49
2021/09/07 11:27:47;;;;;;;10.55;7.25;;;;;;;;;;6243130;22;20445;-47
2021/09/07 11:30:32;;;;;;;8.70;6.83;;;;;;;;;;6243850;22;20442;-48
2021/09/07 11:33:00;;;;;;;9.45;7.28;;;;;;;;;;6270219;22;20474;-47
2021/09/07 11:35:27;;;;;;;10.02;7.65;;;;;;;;;;6269821;22;20328;-49
2021/09/07 11:38:00;;;;;;;8.07;6.78;;;;;;;;;;6270912;22;20337;-50
2021/09/07 11:40:26;;;;;;;10.35;7.00;;;;;;;;;;6270237;22;20352;-47
2021/09/07 11:42:52;;;;;;;8.70;7.10;;;;;;;;;;6270614;22;20626;-47
2021/09/07 11:45:18;;;;;;;8.38;6.78;;;;;;;;;;6271040;22;20329;-47
2021/09/07 11:47:45;;;;;;;9.23;6.85;;;;;;;;;;6269812;22;20868;-47
2021/09/07 11:50:31;;;;;;;8.83;6.67;;;;;;;;;;6270850;22;20356;-47
2021/09/07 11:52:59;;;;;;;9.85;6.90;;;;;;;;;;6270008;22;20427;-49
2021/09/07 11:55:45;;;;;;;9.17;6.80;;;;;;;;;;6270553;22;20339;-48
2021/09/07 11:58:22;;;;;;;8.10;6.68;;;;;;;;;;6270725;22;20341;-48
2021/09/07 12:01:01;;;;;;;8.95;6.75;;;;;;;;;;6269875;22;20781;-48
2021/09/07 12:03:36;;;;;;;9.85;6.70;;;;;;;;;;6269910;22;20336;-48
2021/09/07 12:06:03;;;;;;;8.15;6.60;;;;;;;;;;6270381;22;20689;-48
2021/09/07 12:08:55;;;;;;;7.75;6.38;;;;;;;;;;6270525;22;20346;-47
2021/09/07 12:11:21;;;;;;;8.85;6.72;;;;;;;;;;6262989;22;20708;-47
2021/09/07 12:14:01;;;;;;;8.85;7.15;;;;;;;;;;6270303;22;20467;-47
2021/09/07 12:16:27;;;;;;;9.02;6.70;;;;;;;;;;6270364;22;20335;-42
2021/09/07 12:18:53;;;;;;;11.48;6.88;;;;;;;;;;6269743;22;20423;-42
2021/09/07 12:21:22;;;;;;;13.00;7.18;;;;;;;;;;6270095;22;20444;-46
2021/09/07 12:23:49;;;;;;;13.88;7.28;;;;;;;;;;6269724;22;20359;-50
2021/09/07 12:26:15;;;;;;;10.83;7.80;;;;;;;;;;6268864;22;20403;-49
2021/09/07 12:28:42;;;;;;;9.60;7.40;;;;;;;;;;6269627;22;20328;-49
2021/09/07 12:31:09;;;;;;;11.07;7.53;;;;;;;;;;6269887;22;20399;-47
2021/09/07 12:33:41;;;;;;;9.32;7.20;;;;;;;;;;6269805;22;20340;-48
2021/09/07 12:36:08;;;;;;;11.57;7.50;;;;;;;;;;6269212;22;20344;-47
2021/09/07 12:38:34;;;;;;;11.20;7.20;;;;;;;;;;6270040;22;20356;-48
2021/09/07 12:41:08;;;;;;;10.55;6.95;;;;;;;;;;6270145;22;20376;-46
2021/09/07 12:43:35;;;;;;;11.02;7.07;;;;;;;;;;6270166;22;20453;-47
2021/09/07 12:46:03;;;;;;;11.18;7.70;;;;;;;;;;6269740;22;20336;-47
2021/09/07 12:48:30;;;;;;;9.88;7.25;;;;;;;;;;6243564;22;20407;-48
2021/09/07 12:51:02;;;;;;;8.95;7.55;;;;;;;;;;6269838;22;20332;-45
2021/09/07 12:53:33;;;;;;;9.82;7.18;;;;;;;;;;6242924;22;20799;-45
2021/09/07 12:56:00;;;;;;;9.88;7.00;;;;;;;;;;6269767;22;20430;-47
2021/09/07 12:58:26;;;;;;;9.68;7.20;;;;;;;;;;6243351;22;20704;-48
2021/09/07 13:00:55;;;;;;;10.60;7.50;;;;;;;;;;6270124;22;20701;-49
2021/09/07 13:03:21;;;;;;;11.07;7.03;;;;;;;;;;6270346;22;20338;-48
2021/09/07 13:05:48;;;;;;;11.98;7.80;;;;;;;;;;6270092;22;20435;-49
2021/09/07 13:08:14;;;;;;;8.95;6.93;;;;;;;;;;6243565;22;20423;-46
2021/09/07 13:10:41;;;;;;;9.10;7.15;;;;;;;;;;6269294;22;20656;-47
2021/09/07 13:13:07;;;;;;;9.30;7.28;;;;;;;;;;6242456;22;20724;-47
2021/09/07 13:15:34;;;;;;;10.27;7.35;;;;;;;;;;6268874;22;20939;-48
2021/09/07 13:18:00;;;;;;;8.75;7.45;;;;;;;;;;6243005;22;20349;-50
2021/09/07 13:20:26;;;;;;;10.30;7.50;;;;;;;;;;6269539;22;20329;-46
2021/09/07 13:22:53;;;;;;;10.23;7.63;;;;;;;;;;6269009;22;20341;-47
2021/09/07 13:25:19;;;;;;;10.30;7.68;;;;;;;;;;6270540;22;20348;-47
2021/09/07 13:27:45;;;;;;;9.73;7.35;;;;;;;;;;6270148;22;20341;-49
2021/09/07 13:30:11;;;;;;;9.27;7.18;;;;;;;;;;6269372;22;20344;-47
2021/09/07 13:32:37;;;;;;;10.07;7.30;;;;;;;;;;6270229;22;20337;-44
2021/09/07 13:35:03;;;;;;;8.65;6.97;;;;;;;;;;6270777;22;20332;-46
2021/09/07 13:37:29;;;;;;;10.32;7.50;;;;;;;;;;6269651;22;20338;-45
2021/09/07 13:39:56;;;;;;;11.75;7.63;;;;;;;;;;6271749;22;20782;-46
2021/09/07 13:42:22;;;;;;;8.80;7.20;;;;;;;;;;6272196;22;20392;-45
2021/09/07 13:44:52;;;;;;;10.10;7.80;;;;;;;;;;6272356;22;20341;-44
2021/09/07 13:47:18;;;;;;;9.33;7.40;;;;;;;;;;6272650;22;20344;-49
2021/09/07 13:49:44;;;;;;;8.77;7.33;;;;;;;;;;6271551;22;20384;-49
2021/09/07 13:52:10;;;;;;;9.33;7.00;;;;;;;;;;6272357;22;20336;-46
2021/09/07 13:54:36;;;;;;;9.50;7.57;;;;;;;;;;6272754;22;20913;-46
2021/09/07 13:57:02;;;;;;;7.70;6.88;;;;;;;;;;6272624;22;20339;-48
2021/09/07 13:59:29;;;;;;;9.57;7.07;;;;;;;;;;6272025;22;20435;-44
2021/09/07 14:01:55;;;;;;;7.68;6.88;;;;;;;;;;6271943;22;20786;-46
2021/09/07 14:04:21;;;;;;;8.05;7.00;;;;;;;;;;6271751;22;20432;-48
2021/09/07 14:06:47;;;;;;;8.00;7.20;;;;;;;;;;6272343;22;20333;-46
2021/09/07 14:09:13;;;;;;;7.68;6.80;;;;;;;;;;6270913;22;20629;-47
2021/09/07 14:11:40;;;;;;;8.68;7.18;;;;;;;;;;6271415;22;20333;-48
2021/09/07 14:14:06;;;;;;;7.70;6.70;;;;;;;;;;6270772;22;20371;-46
2021/09/07 14:16:32;;;;;;;7.13;6.40;;;;;;;;;;6271433;22;20344;-47
2021/09/07 14:18:58;;;;;;;8.20;7.03;;;;;;;;;;6271232;22;20436;-47
2021/09/07 14:21:26;;;;;;;8.07;6.88;;;;;;;;;;6271008;22;20701;-47
2021/09/07 14:23:52;;;;;;;7.40;6.53;;;;;;;;;;6271085;22;20336;-46
2021/09/07 14:26:18;;;;;;;7.85;6.68;;;;;;;;;;6272048;22;20402;-46
2021/09/07 14:28:44;;;;;;;6.82;6.05;;;;;;;;;;6270980;22;20348;-45
2021/09/07 14:31:10;;;;;;;7.07;5.70;;;;;;;;;;6271412;22;20331;-46
2021/09/07 14:33:36;;;;;;;6.60;5.63;;;;;;;;;;6271819;22;20329;-47
2021/09/07 14:36:03;;;;;;;6.05;5.03;;;;;;;;;;6271264;22;20756;-45
2021/09/07 14:38:29;;;;;;;5.53;4.88;;;;;;;;;;6272388;22;20329;-44
2021/09/07 14:40:55;;;;;;;5.45;4.80;;;;;;;;;;6270799;22;20410;-46
2021/09/07 14:43:21;;;;;;;6.05;4.95;;;;;;;;;;6271766;22;20337;-45
2021/09/07 14:45:50;;;;;;;5.60;5.00;;;;;;;;;;6271620;22;20507;-46
2021/09/07 14:48:17;;;;;;;5.68;4.97;;;;;;;;;;6271936;22;20359;-47
2021/09/07 14:50:44;;;;;;;6.38;4.90;;;;;;;;;;6271059;22;20368;-45
2021/09/07 14:53:10;;;;;;;5.90;4.63;;;;;;;;;;6272243;22;20511;-45
2021/09/07 14:55:36;;;;;;;5.80;4.80;;;;;;;;;;6271944;22;20792;-46
2021/09/07 14:58:07;;;;;;;5.40;4.68;;;;;;;;;;6271911;22;20344;-46
2021/09/07 15:00:33;;;;;;;6.20;4.90;;;;;;;;;;6271877;22;20818;-45
2021/09/07 15:03:02;;;;;;;5.45;4.47;;;;;;;;;;6271969;22;20332;-47
2021/09/07 15:05:28;;;;;;;6.07;4.73;;;;;;;;;;6271783;22;20354;-45
2021/09/07 15:07:54;;;;;;;5.43;4.82;;;;;;;;;;6271163;22;20343;-45
2021/09/07 15:10:20;;;;;;;5.60;5.00;;;;;;;;;;6269771;22;20781;-46
2021/09/07 15:12:46;;;;;;;6.00;5.00;;;;;;;;;;6270042;22;20369;-45
2021/09/07 15:15:12;;;;;;;5.13;4.57;;;;;;;;;;6271012;22;20391;-46
2021/09/07 15:17:42;;;;;;;5.68;4.78;;;;;;;;;;6269961;22;20388;-46
2021/09/07 15:20:09;;;;;;;5.30;4.80;;;;;;;;;;6270275;22;20345;-46
2021/09/07 15:22:35;;;;;;;6.30;4.93;;;;;;;;;;6269730;22;20384;-49
2021/09/07 15:25:01;;;;;;;5.87;4.97;;;;;;;;;;6268618;22;20340;-47
2021/09/07 15:27:30;;;;;;;6.00;5.00;;;;;;;;;;6269998;22;20412;-47
2021/09/07 15:29:56;;;;;;;6.13;5.20;;;;;;;;;;6270406;22;20344;-47
2021/09/07 15:32:22;;;;;;;6.45;5.10;;;;;;;;;;6270356;22;20412;-47
2021/09/07 15:34:48;;;;;;;5.95;5.07;;;;;;;;;;6270038;22;20799;-48
2021/09/07 15:37:15;;;;;;;6.80;5.47;;;;;;;;;;6270546;22;20336;-48
2021/09/07 15:39:41;;;;;;;6.80;5.35;;;;;;;;;;6270948;22;20663;-47
2021/09/07 15:42:07;;;;;;;7.10;5.35;;;;;;;;;;6243591;22;20391;-46
2021/09/07 15:44:33;;;;;;;7.60;5.72;;;;;;;;;;6270880;22;20337;-47
2021/09/07 15:47:00;;;;;;;7.60;5.33;;;;;;;;;;6270631;22;20789;-48
2021/09/07 15:49:26;;;;;;;6.35;5.53;;;;;;;;;;6270366;22;20372;-47
2021/09/07 15:51:52;;;;;;;7.40;5.60;;;;;;;;;;6270828;22;20336;-46
2021/09/07 15:54:18;;;;;;;8.50;5.87;;;;;;;;;;6270458;22;20341;-46
2021/09/07 15:56:44;;;;;;;8.10;6.10;;;;;;;;;;6270725;22;20336;-47
2021/09/07 15:59:11;;;;;;;11.65;6.43;;;;;;;;;;6271024;22;20355;-42
2021/09/07 16:01:37;;;;;;;7.38;5.75;;;;;;;;;;6268712;22;20421;-43
2021/09/07 16:04:03;;;;;;;8.27;5.97;;;;;;;;;;6267346;22;20423;-43
2021/09/07 16:06:29;;;;;;;8.25;6.07;;;;;;;;;;6240919;22;20402;-42
2021/09/07 16:08:55;;;;;;;7.25;6.20;;;;;;;;;;6269934;22;20339;-47
2021/09/07 16:11:21;;;;;;;8.05;6.43;;;;;;;;;;6269546;22;20788;-45
2021/09/07 16:13:48;;;;;;;7.65;6.55;;;;;;;;;;6268984;22;20374;-44
2021/09/07 16:16:14;;;;;;;8.10;6.50;;;;;;;;;;6269079;22;20432;-45
2021/09/07 16:18:43;;;;;;;9.35;6.80;;;;;;;;;;6268965;22;20325;-45
2021/09/07 16:21:09;;;;;;;8.35;6.40;;;;;;;;;;6269028;22;20482;-44
2021/09/07 16:23:35;;;;;;;8.50;7.18;;;;;;;;;;6241997;22;20431;-45
2021/09/07 16:26:04;;;;;;;9.40;7.20;;;;;;;;;;6269268;22;20340;-45
2021/09/07 16:28:32;;;;;;;7.88;7.05;;;;;;;;;;6269743;22;20345;-47
2021/09/07 16:30:58;;;;;;;7.75;6.50;;;;;;;;;;6270459;22;20336;-46
2021/09/07 16:33:29;;;;;;;8.15;6.95;;;;;;;;;;6268755;22;20346;-51
2021/09/07 16:35:59;;;;;;;10.02;7.00;;;;;;;;;;6241285;22;20385;-48
2021/09/07 16:38:25;;;;;;;8.07;6.65;;;;;;;;;;6240775;22;20350;-49
2021/09/07 16:40:54;;;;;;;9.27;6.90;;;;;;;;;;6270015;22;20475;-47
2021/09/07 16:43:21;;;;;;;7.33;6.50;;;;;;;;;;6242340;22;20363;-49
2021/09/07 16:45:47;;;;;;;7.53;6.70;;;;;;;;;;6242454;22;20793;-47
2021/09/07 16:48:14;;;;;;;7.97;6.60;;;;;;;;;;6270169;22;20407;-48
2021/09/07 16:50:43;;;;;;;8.48;7.03;;;;;;;;;;6269340;22;20398;-49
2021/09/07 16:53:21;;;;;;;7.38;6.63;;;;;;;;;;6269416;22;20416;-48
2021/09/07 16:55:49;;;;;;;7.55;6.75;;;;;;;;;;6270400;22;20340;-50
2021/09/07 16:58:15;;;;;;;8.88;6.88;;;;;;;;;;6270504;22;20761;-51
2021/09/07 17:00:42;;;;;;;8.48;6.78;;;;;;;;;;6269853;22;20348;-52
2021/09/07 17:03:08;;;;;;;7.25;6.40;;;;;;;;;;6270469;22;20340;-54
2021/09/07 17:05:35;;;;;;;7.82;6.53;;;;;;;;;;6270584;22;20470;-50
2021/09/07 17:10:30;;;;;;;8.77;6.80;;;;;;;;;;6270985;22;20411;-51
2021/09/07 17:12:59;;;;;;;8.00;6.95;;;;;;;;;;6270158;22;20440;-52
2021/09/07 17:15:28;;;;;;;7.40;6.65;;;;;;;;;;6272298;22;20347;-52
2021/09/07 17:17:56;;;;;;;7.97;7.18;;;;;;;;;;6245046;22;20372;-49
2021/09/07 17:20:22;;;;;;;8.30;6.88;;;;;;;;;;6272737;22;20347;-42
2021/09/07 17:22:48;;;;;;;8.38;6.78;;;;;;;;;;6271045;22;20408;-43
2021/09/07 17:25:15;;;;;;;7.63;6.77;;;;;;;;;;6271702;22;20359;-42
2021/09/07 17:27:42;;;;;;;8.45;6.80;;;;;;;;;;6271871;22;20329;-41
2021/09/07 17:30:09;;;;;;;9.52;6.88;;;;;;;;;;6272343;22;20344;-42
2021/09/07 17:35:23;;;;;;;10.13;6.70;;;;;;;;;;6272247;22;20419;-43
2021/09/07 17:43:18;;;;;;;9.68;7.00;;;;;;;;;;6271261;22;20741;-42
2021/09/07 17:45:44;;;;;;;9.90;7.55;;;;;;;;;;6271759;22;20341;-42
2021/09/07 17:48:11;;;;;;;11.35;7.93;;;;;;;;;;6270763;22;20347;-42
2021/09/07 17:50:38;;;;;;;10.35;7.38;;;;;;;;;;6271338;22;20410;-41
2021/09/07 17:53:04;;;;;;;10.00;7.60;;;;;;;;;;6243691;22;20355;-41
2021/09/07 17:55:30;;;;;;;11.02;9.15;;;;;;;;;;6271273;22;20351;-41
2021/09/07 17:57:59;;;;;;;10.70;9.50;;;;;;;;;;6271733;22;20481;-42
2021/09/07 18:00:25;;;;;;;9.52;8.52;;;;;;;;;;6242949;22;20344;-42
2021/09/07 18:02:52;;;;;;;9.43;8.13;;;;;;;;;;6270072;22;20418;-41
2021/09/07 18:05:18;;;;;;;10.23;7.68;;;;;;;;;;6270521;22;20443;-41
2021/09/07 18:07:44;;;;;;;8.77;7.70;;;;;;;;;;6272099;22;20359;-42
2021/09/07 18:10:10;;;;;;;8.52;7.35;;;;;;;;;;6245110;22;20328;-42
2021/09/07 18:12:37;;;;;;;7.95;7.00;;;;;;;;;;6271368;22;20363;-41
2021/09/07 18:15:03;;;;;;;9.05;7.28;;;;;;;;;;6271942;22;20398;-42
2021/09/07 18:17:29;;;;;;;8.00;6.93;;;;;;;;;;6271722;22;20691;-41
2021/09/07 18:19:58;;;;;;;9.07;6.82;;;;;;;;;;6271369;22;20665;-42
2021/09/07 18:22:28;;;;;;;7.78;6.22;;;;;;;;;;6271053;22;20430;-41
2021/09/07 18:24:56;;;;;;;8.20;6.20;;;;;;;;;;6270895;22;20348;-43
2021/09/07 18:27:23;;;;;;;8.65;6.72;;;;;;;;;;6271570;22;20361;-41
2021/09/07 18:29:50;;;;;;;7.47;6.63;;;;;;;;;;6271202;22;20800;-41
2021/09/07 18:32:16;;;;;;;8.05;6.57;;;;;;;;;;6270681;22;20445;-41
2021/09/07 18:34:42;;;;;;;7.57;6.60;;;;;;;;;;6271731;22;20343;-43
2021/09/07 18:37:09;;;;;;;8.27;6.35;;;;;;;;;;6270253;22;20418;-42
2021/09/07 18:39:36;;;;;;;7.47;6.60;;;;;;;;;;6271107;22;20347;-42
2021/09/07 18:42:02;;;;;;;7.00;6.20;;;;;;;;;;6270786;22;20432;-42
2021/09/07 18:44:31;;;;;;;7.33;6.40;;;;;;;;;;6271785;22;20340;-42
2021/09/07 18:46:57;;;;;;;8.68;6.57;;;;;;;;;;6244755;22;20344;-41
2021/09/07 18:49:23;;;;;;;7.30;6.53;;;;;;;;;;6272324;22;20372;-42
2021/09/07 18:51:49;;;;;;;7.37;6.23;;;;;;;;;;6244573;22;20867;-46
2021/09/07 18:54:18;;;;;;;7.97;6.37;;;;;;;;;;6271804;22;20406;-47
2021/09/07 18:56:44;;;;;;;8.85;7.00;;;;;;;;;;6271681;22;20348;-47
2021/09/07 18:59:10;;;;;;;8.23;6.20;;;;;;;;;;6271213;22;20527;-48
2021/09/07 19:01:42;;;;;;;8.23;6.75;;;;;;;;;;6269850;22;20442;-46
2021/09/07 19:04:10;;;;;;;7.82;6.20;;;;;;;;;;6271971;22;20412;-48
2021/09/07 19:06:39;;;;;;;7.97;6.25;;;;;;;;;;6271569;22;20333;-46
2021/09/07 19:09:08;;;;;;;8.00;5.97;;;;;;;;;;6271312;22;20340;-45
2021/09/07 19:11:36;;;;;;;7.78;6.18;;;;;;;;;;6271411;22;20631;-47
2021/09/07 19:14:03;;;;;;;10.13;6.50;;;;;;;;;;6242716;22;20380;-47
2021/09/07 19:16:29;;;;;;;11.13;6.40;;;;;;;;;;6270732;22;20328;-47
2021/09/07 19:18:55;;;;;;;7.90;6.40;;;;;;;;;;6270455;22;20805;-49
2021/09/07 19:21:21;;;;;;;9.00;6.17;;;;;;;;;;6270610;22;20439;-46
2021/09/07 19:23:47;;;;;;;8.57;6.10;;;;;;;;;;6270782;22;20424;-47
2021/09/07 19:26:14;;;;;;;8.82;6.32;;;;;;;;;;6270651;22;20614;-46
2021/09/07 19:28:40;;;;;;;7.43;6.22;;;;;;;;;;6269323;22;20359;-47
2021/09/07 19:31:07;;;;;;;8.95;6.20;;;;;;;;;;6269520;22;20348;-46
2021/09/07 19:33:35;;;;;;;8.30;6.00;;;;;;;;;;6269685;22;20405;-46
2021/09/07 19:36:03;;;;;;;7.30;5.85;;;;;;;;;;6269657;22;20341;-46
2021/09/07 19:38:29;;;;;;;8.40;5.90;;;;;;;;;;6269837;22;20824;-45
2021/09/07 19:40:55;;;;;;;7.23;5.70;;;;;;;;;;6270953;22;20363;-45
2021/09/07 19:43:21;;;;;;;7.93;5.90;;;;;;;;;;6270231;22;20836;-46
2021/09/07 19:45:47;;;;;;;7.00;5.72;;;;;;;;;;6270452;22;20656;-47
2021/09/07 19:48:13;;;;;;;6.72;6.03;;;;;;;;;;6271364;22;20391;-46
2021/09/07 19:50:40;;;;;;;7.05;5.85;;;;;;;;;;6270888;22;20348;-45
2021/09/07 19:53:08;;;;;;;7.53;5.70;;;;;;;;;;6270863;22;20348;-46
2021/09/07 19:55:34;;;;;;;8.25;6.00;;;;;;;;;;6270544;22;20619;-46
2021/09/07 19:58:00;;;;;;;8.18;5.90;;;;;;;;;;6270938;22;20415;-46
2021/09/07 20:00:27;;;;;;;6.43;5.57;;;;;;;;;;6268633;22;20442;-46
2021/09/07 20:02:53;;;;;;;6.40;5.45;;;;;;;;;;6270396;22;20427;-47
2021/09/07 20:05:19;;;;;;;8.15;5.82;;;;;;;;;;6270013;22;21365;-46
2021/09/07 20:07:45;;;;;;;6.85;5.72;;;;;;;;;;6270297;22;20356;-47
2021/09/07 20:10:12;;;;;;;6.40;5.40;;;;;;;;;;6270759;22;20356;-49
2021/09/07 20:12:38;;;;;;;9.00;5.70;;;;;;;;;;6270102;22;20422;-52
2021/09/07 20:15:05;;;;;;;6.50;5.25;;;;;;;;;;6270121;22;20340;-51
2021/09/07 20:17:32;;;;;;;6.05;5.00;;;;;;;;;;6268184;22;20396;-50
2021/09/07 20:19:58;;;;;;;6.38;4.45;;;;;;;;;;6269241;22;20337;-50
2021/09/07 20:22:24;;;;;;;5.78;3.70;;;;;;;;;;6243745;22;20817;-53
2021/09/07 20:24:51;;;;;;;8.02;4.18;;;;;;;;;;6269977;22;20333;-55
2021/09/07 20:27:17;;;;;;;8.07;4.20;;;;;;;;;;6269659;22;20752;-51
2021/09/07 20:29:43;;;;;;;7.90;3.97;;;;;;;;;;6270240;22;20435;-54
2021/09/07 20:32:09;;;;;;;5.82;3.80;;;;;;;;;;6242321;22;20534;-53
2021/09/07 20:34:35;;;;;;;5.15;3.70;;;;;;;;;;6269214;22;20339;-56
2021/09/07 20:37:01;;;;;;;6.25;3.67;;;;;;;;;;6269209;22;20344;-54
2021/09/07 20:39:27;;;;;;;4.65;3.08;;;;;;;;;;6268518;22;20394;-51
2021/09/07 20:41:54;;;;;;;4.65;3.38;;;;;;;;;;6269615;22;20974;-56
2021/09/07 20:44:20;;;;;;;5.95;3.63;;;;;;;;;;6269803;22;20328;-51
2021/09/07 20:46:46;;;;;;;5.78;3.17;;;;;;;;;;6269768;22;20349;-54
2021/09/07 20:49:13;;;;;;;7.20;3.35;;;;;;;;;;6270711;22;20360;-54
2021/09/07 20:51:39;;;;;;;8.05;4.10;;;;;;;;;;6271722;22;20672;-54
2021/09/07 20:54:05;;;;;;;8.10;3.58;;;;;;;;;;6270990;22;20822;-51
2021/09/07 20:56:31;;;;;;;9.75;3.60;;;;;;;;;;6244000;22;20789;-55
2021/09/07 20:58:57;;;;;;;6.05;3.42;;;;;;;;;;6271031;22;20607;-54
2021/09/07 21:01:26;;;;;;;7.55;3.42;;;;;;;;;;6272677;22;20376;-54
2021/09/07 21:03:52;;;;;;;7.15;3.50;;;;;;;;;;6272203;22;20423;-54
2021/09/07 21:06:18;;;;;;;7.78;3.42;;;;;;;;;;6272712;22;20336;-53
2021/09/07 21:08:44;;;;;;;6.45;3.50;;;;;;;;;;6272673;22;20325;-54
2021/09/07 21:11:10;;;;;;;4.85;3.25;;;;;;;;;;6245182;22;20655;-53
